Time;durP1;ratioP1;P1;durP2;ratioP2;P2;SDS_P1;SDS_P2;PMS_P1;PMS_P2;Temp;Humidity;BMP_temperature;BMP_pressure;BME280_temperature;BME280_humidity;BME280_pressure;Samples;Min_cycle;Max_cycle;Signal;HPM_P1;HPM_P2
2022/09/30 00:00:58;;;;;;;34.15;21.02;;;;;;;9.13;100.00;97228.83;1733089;82;20985;-87
2022/09/30 00:03:27;;;;;;;31.80;19.12;;;;;;;9.12;100.00;97223.16;1732898;81;21431;-85
2022/09/30 00:05:58;;;;;;;36.17;20.90;;;;;;;9.11;100.00;97222.91;1733086;82;21042;-87
2022/09/30 00:08:24;;;;;;;35.40;21.27;;;;;;;9.12;100.00;97226.41;1732970;81;21093;-84
2022/09/30 00:11:19;;;;;;;32.28;20.75;;;;;;;9.12;100.00;97221.02;1733065;82;21050;-86
2022/09/30 00:13:46;;;;;;;37.05;22.50;;;;;;;9.08;100.00;97224.84;1732995;81;20978;-84
2022/09/30 00:16:13;;;;;;;38.25;21.55;;;;;;;9.09;100.00;97218.89;1733036;82;21017;-84
2022/09/30 00:18:40;;;;;;;34.33;19.82;;;;;;;9.08;100.00;97218.09;1733277;81;21844;-85
2022/09/30 00:21:07;;;;;;;32.78;19.35;;;;;;;9.07;100.00;97214.34;1733090;82;21088;-84
2022/09/30 00:23:34;;;;;;;33.55;18.98;;;;;;;9.03;100.00;97214.09;1733564;81;21016;-85
2022/09/30 00:26:01;;;;;;;33.42;21.05;;;;;;;9.00;100.00;97211.42;1702883;82;21028;-84
2022/09/30 00:28:27;;;;;;;29.98;18.05;;;;;;;8.99;100.00;97211.72;1733653;82;21067;-87
2022/09/30 00:30:59;;;;;;;32.90;17.55;;;;;;;9.01;100.00;97214.93;1733894;82;20993;-87
2022/09/30 00:33:25;;;;;;;31.30;18.98;;;;;;;9.00;100.00;97214.67;1733928;82;21155;-87
2022/09/30 00:35:51;;;;;;;29.10;16.73;;;;;;;9.02;100.00;97217.34;1733900;82;21583;-87
2022/09/30 00:38:17;;;;;;;32.90;17.57;;;;;;;9.02;100.00;97215.98;1733832;82;20973;-86
2022/09/30 00:40:43;;;;;;;35.52;18.87;;;;;;;8.98;100.00;97219.02;1733881;82;20905;-84
2022/09/30 00:43:15;;;;;;;25.30;16.35;;;;;;;8.99;100.00;97225.23;1733744;82;21072;-84
2022/09/30 00:45:54;;;;;;;31.97;18.82;;;;;;;9.00;100.00;97225.48;1733841;82;21236;-86
2022/09/30 00:48:24;;;;;;;36.00;19.35;;;;;;;9.01;100.00;97231.15;1733849;81;21052;-85
2022/09/30 00:50:54;;;;;;;32.20;20.08;;;;;;;9.03;100.00;97235.16;1733936;82;21013;-84
2022/09/30 00:53:31;;;;;;;34.43;22.05;;;;;;;9.04;100.00;97234.06;1733267;81;21001;-86
2022/09/30 00:56:03;;;;;;;36.90;19.25;;;;;;;9.06;100.00;97231.09;1733898;82;21048;-86
2022/09/30 00:58:34;;;;;;;27.10;17.30;;;;;;;9.10;100.00;97227.26;1733728;81;21142;-84
2022/09/30 01:01:00;;;;;;;35.98;21.15;;;;;;;9.08;100.00;97219.44;1733909;82;21048;-83
2022/09/30 01:03:32;;;;;;;31.02;19.00;;;;;;;9.10;100.00;97216.45;1733782;81;21103;-84
2022/09/30 01:05:58;;;;;;;31.23;18.30;;;;;;;9.10;100.00;97208.34;1702632;82;21040;-87
2022/09/30 01:08:24;;;;;;;34.75;18.73;;;;;;;9.12;100.00;97215.61;1734163;81;20993;-87
2022/09/30 01:10:50;;;;;;;29.87;18.10;;;;;;;9.11;100.00;97222.91;1733985;82;21197;-84
2022/09/30 01:13:16;;;;;;;32.10;18.62;;;;;;;9.12;100.00;97222.36;1733760;81;20961;-87
2022/09/30 01:16:21;;;;;;;29.92;18.37;;;;;;;9.15;100.00;97226.66;1734098;82;21080;-87
2022/09/30 01:19:10;;;;;;;33.33;18.57;;;;;;;9.17;100.00;97227.72;1733928;81;21611;-84
2022/09/30 01:22:15;;;;;;;26.25;16.70;;;;;;;9.14;100.00;97229.08;1715439;82;21093;-87
2022/09/30 01:25:12;;;;;;;28.60;18.00;;;;;;;9.17;100.00;97236.63;1739912;82;21164;-87
2022/09/30 01:27:53;;;;;;;30.17;17.67;;;;;;;9.18;100.00;97232.83;1739430;81;20971;-84
2022/09/30 01:30:54;;;;;;;31.55;18.30;;;;;;;9.19;100.00;97234.98;1739287;82;21090;-84
2022/09/30 01:33:29;;;;;;;23.65;15.25;;;;;;;9.13;100.00;97226.12;1739704;81;21027;-87
2022/09/30 01:36:20;;;;;;;27.58;15.35;;;;;;;9.20;100.00;97231.98;1732446;81;21081;-84
2022/09/30 01:39:13;;;;;;;32.23;15.80;;;;;;;9.19;100.00;97234.44;1720409;82;21092;-84
2022/09/30 01:41:57;;;;;;;27.95;16.27;;;;;;;9.13;100.00;97237.48;1720126;83;21105;-86
2022/09/30 01:44:49;;;;;;;23.90;16.17;;;;;;;9.13;100.00;97236.13;1709861;83;21076;-84
2022/09/30 01:47:25;;;;;;;25.62;16.35;;;;;;;9.13;100.00;97232.88;1728209;82;21494;-85
2022/09/30 01:50:19;;;;;;;23.20;14.85;;;;;;;9.16;100.00;97232.32;1734446;82;21086;-84
2022/09/30 01:53:05;;;;;;;33.00;17.07;;;;;;;9.16;100.00;97226.11;1734116;82;21113;-84
2022/09/30 01:55:39;;;;;;;31.90;18.65;;;;;;;9.16;100.00;97218.00;1734468;82;21019;-84
2022/09/30 01:58:38;;;;;;;25.88;17.27;;;;;;;9.18;100.00;97210.40;1734245;82;22138;-85
2022/09/30 02:01:07;;;;;;;32.67;18.12;;;;;;;9.19;100.00;97219.56;1729612;82;21043;-86
2022/09/30 02:03:44;;;;;;;28.60;18.07;;;;;;;9.19;100.00;97224.17;1734174;82;21432;-84
2022/09/30 02:06:14;;;;;;;28.65;16.82;;;;;;;9.19;100.00;97224.17;1733225;82;22041;-84
2022/09/30 02:08:50;;;;;;;28.85;17.35;;;;;;;9.17;100.00;97222.31;1734127;82;21019;-84
2022/09/30 02:11:20;;;;;;;31.62;17.42;;;;;;;9.16;100.00;97221.51;1734277;82;21040;-86
2022/09/30 02:13:57;;;;;;;27.67;17.73;;;;;;;9.19;100.00;97220.92;1734072;82;20979;-86
2022/09/30 02:16:33;;;;;;;27.13;16.73;;;;;;;9.20;100.00;97225.77;1734297;81;21059;-87
2022/09/30 02:19:17;;;;;;;26.70;16.87;;;;;;;9.19;100.00;97226.87;1734935;82;21754;-85
2022/09/30 02:21:47;;;;;;;28.67;17.37;;;;;;;9.18;100.00;97227.42;1734295;82;21008;-85
2022/09/30 02:24:15;;;;;;;28.02;18.35;;;;;;;9.20;100.00;97232.53;1739001;82;21008;-84
2022/09/30 02:26:42;;;;;;;31.68;17.02;;;;;;;9.19;100.00;97234.44;1739744;82;20996;-87
2022/09/30 02:29:18;;;;;;;30.62;17.90;;;;;;;9.19;100.00;97231.73;1739080;82;20994;-85
2022/09/30 02:31:47;;;;;;;25.12;16.07;;;;;;;9.20;100.00;97231.18;1739380;82;21103;-84
2022/09/30 02:34:16;;;;;;;25.55;15.28;;;;;;;9.19;100.00;97223.62;1739142;82;21172;-84
2022/09/30 02:36:59;;;;;;;26.05;17.23;;;;;;;9.18;100.00;97224.72;1739192;82;21072;-87
2022/09/30 02:39:34;;;;;;;26.27;16.55;;;;;;;9.18;100.00;97225.27;1739704;82;21009;-87
2022/09/30 02:42:07;;;;;;;28.67;16.23;;;;;;;9.13;100.00;97219.91;1738721;81;21017;-87
2022/09/30 02:44:34;;;;;;;27.70;15.40;;;;;;;9.13;100.00;97230.17;1739603;82;21481;-87
2022/09/30 02:47:13;;;;;;;27.37;16.23;;;;;;;9.12;100.00;97229.12;1736337;81;21050;-87
2022/09/30 02:49:50;;;;;;;24.87;16.42;;;;;;;9.12;100.00;97231.27;1733270;82;21434;-86
2022/09/30 02:52:27;;;;;;;28.17;18.00;;;;;;;9.12;100.00;97230.47;1732704;81;21026;-87
2022/09/30 02:55:10;;;;;;;26.70;16.25;;;;;;;9.11;100.00;97231.02;1733356;82;21430;-86
2022/09/30 02:57:59;;;;;;;31.27;16.95;;;;;;;9.12;100.00;97238.03;1728946;81;21795;-87
2022/09/30 03:00:25;;;;;;;26.45;17.05;;;;;;;9.14;100.00;97230.98;1690387;82;21017;-87
2022/09/30 03:02:58;;;;;;;27.35;16.62;;;;;;;9.13;100.00;97235.58;1732962;81;20918;-85
2022/09/30 03:05:24;;;;;;;29.35;17.40;;;;;;;9.11;100.00;97238.33;1733176;82;21049;-87
2022/09/30 03:07:50;;;;;;;29.50;17.30;;;;;;;9.09;100.00;97242.67;1749434;81;21547;-84
2022/09/30 03:10:16;;;;;;;29.95;18.17;;;;;;;9.08;100.00;97238.36;1755210;80;21170;-84
2022/09/30 03:13:04;;;;;;;26.15;17.17;;;;;;;9.10;100.00;97244.28;1756125;81;21025;-84
2022/09/30 03:16:02;;;;;;;29.30;16.48;;;;;;;9.08;100.00;97243.77;1756062;80;21032;-87
2022/09/30 03:18:59;;;;;;;28.00;16.90;;;;;;;9.05;100.00;97246.48;1749609;81;21411;-84
2022/09/30 03:22:09;;;;;;;33.65;18.17;;;;;;;9.07;100.00;97248.92;1756238;81;20996;-84
2022/09/30 03:24:59;;;;;;;30.60;16.40;;;;;;;9.08;100.00;97250.52;1727465;82;21183;-87
2022/09/30 03:27:50;;;;;;;27.27;16.15;;;;;;;9.08;100.00;97253.23;1696652;83;21057;-84
2022/09/30 03:30:19;;;;;;;23.38;15.98;;;;;;;9.09;100.00;97258.08;1726633;83;21071;-86
2022/09/30 03:33:09;;;;;;;22.87;16.02;;;;;;;9.07;100.00;97255.67;1727872;81;20941;-87
2022/09/30 03:36:02;;;;;;;28.12;17.80;;;;;;;9.09;100.00;97260.79;1728233;83;21016;-86
2022/09/30 03:38:59;;;;;;;29.27;17.60;;;;;;;9.08;100.00;97256.48;1728145;81;21144;-86
2022/09/30 03:41:41;;;;;;;27.35;19.12;;;;;;;9.08;100.00;97260.53;1696627;84;21067;-85
2022/09/30 03:44:18;;;;;;;27.27;18.60;;;;;;;9.06;100.00;97267.58;1727953;81;21012;-86
2022/09/30 03:46:53;;;;;;;32.83;18.12;;;;;;;9.09;100.00;97263.48;1735184;81;21535;-86
2022/09/30 03:49:25;;;;;;;31.97;19.17;;;;;;;9.11;100.00;97262.09;1725097;81;21033;-84
2022/09/30 03:51:52;;;;;;;32.03;17.77;;;;;;;9.14;100.00;97260.16;1751811;81;21242;-87
2022/09/30 03:54:18;;;;;;;26.90;15.50;;;;;;;9.15;100.00;97268.55;1751683;80;21065;-84
2022/09/30 03:56:44;;;;;;;25.92;15.15;;;;;;;9.13;100.00;97269.37;1751866;81;20914;-87
2022/09/30 03:59:12;;;;;;;23.18;16.37;;;;;;;9.11;100.00;97272.91;1751852;80;20941;-87
2022/09/30 04:01:38;;;;;;;28.40;16.90;;;;;;;9.12;100.00;97271.81;1751938;81;21509;-84
2022/09/30 04:04:04;;;;;;;25.08;16.52;;;;;;;9.11;100.00;97274.81;1751790;80;21190;-84
2022/09/30 04:06:30;;;;;;;28.65;17.37;;;;;;;9.11;100.00;97273.45;1751813;81;21005;-87
2022/09/30 04:08:56;;;;;;;26.45;16.40;;;;;;;9.11;100.00;97270.75;1751728;80;20977;-87
2022/09/30 04:11:22;;;;;;;27.45;17.27;;;;;;;9.10;100.00;97269.15;1753023;81;21491;-84
2022/09/30 04:13:48;;;;;;;21.23;15.25;;;;;;;9.12;100.00;97269.66;1759243;80;20897;-87
2022/09/30 04:16:14;;;;;;;28.40;17.30;;;;;;;9.15;100.00;97266.40;1768104;80;21880;-87
2022/09/30 04:18:40;;;;;;;26.37;18.12;;;;;;;9.13;100.00;97266.66;1770904;80;20885;-85
2022/09/30 04:21:11;;;;;;;29.95;17.60;;;;;;;9.13;100.00;97269.37;1745714;81;21653;-84
2022/09/30 04:23:38;;;;;;;30.08;18.45;;;;;;;9.16;100.00;97268.00;1746168;80;21004;-84
2022/09/30 04:26:06;;;;;;;32.85;18.05;;;;;;;9.14;100.00;97272.32;1748260;81;21035;-87
2022/09/30 04:28:32;;;;;;;23.50;16.05;;;;;;;9.12;100.00;97273.71;1747555;81;21140;-86
2022/09/30 04:31:00;;;;;;;27.65;17.40;;;;;;;9.13;100.00;97270.72;1764925;80;21001;-83
2022/09/30 04:33:26;;;;;;;30.52;18.20;;;;;;;9.10;100.00;97274.01;1749525;82;21454;-83
2022/09/30 04:35:54;;;;;;;30.30;19.30;;;;;;;9.12;100.00;97269.11;1724139;82;21073;-84
2022/09/30 04:38:20;;;;;;;32.83;19.00;;;;;;;9.16;100.00;97274.77;1717923;83;21077;-87
2022/09/30 04:40:48;;;;;;;24.07;15.55;;;;;;;9.15;100.00;97278.02;1714137;83;21469;-84
2022/09/30 04:43:16;;;;;;;28.05;16.37;;;;;;;9.17;100.00;97273.66;1720493;81;21504;-87
2022/09/30 04:45:45;;;;;;;34.67;19.85;;;;;;;9.22;100.00;97281.15;1731389;81;22173;-87
2022/09/30 04:48:12;;;;;;;23.47;16.12;;;;;;;9.23;100.00;97281.44;1738742;81;20982;-86
2022/09/30 04:50:38;;;;;;;36.25;21.60;;;;;;;9.21;100.00;97289.00;1732705;82;20992;-84
2022/09/30 04:53:04;;;;;;;27.42;17.57;;;;;;;9.20;100.00;97285.24;1731757;82;21012;-87
2022/09/30 04:55:30;;;;;;;30.05;16.97;;;;;;;9.21;100.00;97290.36;1731499;82;20960;-87
2022/09/30 04:57:56;;;;;;;27.42;17.27;;;;;;;9.24;100.00;97289.00;1731418;82;20948;-83
2022/09/30 05:00:23;;;;;;;26.45;15.93;;;;;;;9.23;100.00;97293.59;1733634;81;20894;-83
2022/09/30 05:02:50;;;;;;;25.70;15.80;;;;;;;9.24;100.00;97297.11;1737803;81;21102;-87
2022/09/30 05:05:16;;;;;;;25.88;16.73;;;;;;;9.24;100.00;97291.15;1732884;82;21370;-87
2022/09/30 05:07:42;;;;;;;24.63;16.82;;;;;;;9.27;100.00;97292.47;1734226;81;21011;-84
2022/09/30 05:10:10;;;;;;;27.85;16.52;;;;;;;9.29;100.00;97290.27;1752052;81;21006;-87
2022/09/30 05:12:37;;;;;;;28.12;16.15;;;;;;;9.31;100.00;97301.08;1751512;81;21057;-86
2022/09/30 05:15:07;;;;;;;27.70;16.97;;;;;;;9.31;100.00;97301.59;1747254;81;21481;-87
2022/09/30 05:17:33;;;;;;;27.40;16.55;;;;;;;9.33;100.00;97304.29;1751713;81;21194;-87
2022/09/30 05:19:59;;;;;;;21.48;14.60;;;;;;;9.36;100.00;97307.50;1751882;81;21340;-84
2022/09/30 05:22:26;;;;;;;25.52;14.73;;;;;;;9.38;100.00;97306.11;1732365;81;21033;-87
2022/09/30 05:24:51;;;;;;;25.20;16.27;;;;;;;9.38;100.00;97312.06;1730184;81;21436;-87
2022/09/30 05:27:19;;;;;;;29.80;16.35;;;;;;;9.41;100.00;97315.56;1725030;81;20921;-87
2022/09/30 05:29:45;;;;;;;24.65;15.68;;;;;;;9.45;100.00;97317.94;1735073;81;22084;-83
2022/09/30 05:32:11;;;;;;;24.18;16.52;;;;;;;9.45;100.00;97313.33;1739516;81;21600;-84
2022/09/30 05:34:37;;;;;;;32.15;17.57;;;;;;;9.47;100.00;97312.48;1744653;81;20881;-87
2022/09/30 05:37:05;;;;;;;27.00;16.77;;;;;;;9.51;100.00;97318.94;1737589;81;21579;-87
2022/09/30 05:39:30;;;;;;;26.15;16.00;;;;;;;9.55;100.00;97321.86;1736906;81;21007;-87
2022/09/30 05:41:57;;;;;;;27.98;15.40;;;;;;;9.57;100.00;97321.85;1730453;81;21460;-87
2022/09/30 05:44:23;;;;;;;22.35;16.20;;;;;;;9.62;100.00;97325.02;1741172;81;21614;-84
2022/09/30 05:46:49;;;;;;;22.85;16.37;;;;;;;9.65;100.00;97324.98;1754450;80;21477;-84
2022/09/30 05:49:15;;;;;;;23.87;14.80;;;;;;;9.70;100.00;97330.34;1754628;80;20886;-83
2022/09/30 05:51:41;;;;;;;22.40;15.35;;;;;;;9.74;100.00;97332.19;1740417;81;20991;-87
2022/09/30 05:54:09;;;;;;;25.27;15.90;;;;;;;9.80;100.00;97334.25;1727163;81;21119;-84
2022/09/30 05:56:37;;;;;;;26.20;15.72;;;;;;;9.85;100.00;97344.47;1757765;79;21620;-83
2022/09/30 05:59:04;;;;;;;25.32;14.30;;;;;;;9.92;100.00;97344.67;1760553;80;21571;-84
2022/09/30 06:01:30;;;;;;;20.12;14.33;;;;;;;9.93;100.00;97343.58;1762570;79;20998;-87
2022/09/30 06:03:56;;;;;;;21.42;13.93;;;;;;;9.95;100.00;97338.67;1752394;80;21951;-84
2022/09/30 06:06:22;;;;;;;19.77;14.00;;;;;;;9.94;100.00;97338.41;1747076;80;21296;-87
2022/09/30 06:08:48;;;;;;;22.75;15.75;;;;;;;9.95;100.00;97340.02;1747570;80;20957;-84
2022/09/30 06:11:16;;;;;;;23.05;15.08;;;;;;;9.99;100.00;97341.03;1757832;79;20901;-87
2022/09/30 06:13:42;;;;;;;30.05;17.25;;;;;;;10.06;100.00;97349.59;1748312;80;21153;-84
2022/09/30 06:16:09;;;;;;;24.90;17.12;;;;;;;10.08;100.00;97344.69;1753871;80;21100;-87
2022/09/30 06:18:35;;;;;;;26.87;17.00;;;;;;;10.09;100.00;97351.73;1747006;80;21747;-87
2022/09/30 06:21:02;;;;;;;22.48;15.50;;;;;;;10.10;100.00;97343.88;1750401;81;20935;-87
2022/09/30 06:23:30;;;;;;;21.35;15.88;;;;;;;10.10;100.00;97336.55;1744222;80;22117;-84
2022/09/30 06:25:56;;;;;;;25.17;16.40;;;;;;;10.07;100.00;97339.83;1755069;81;21130;-84
2022/09/30 06:28:22;;;;;;;25.65;17.20;;;;;;;10.11;100.00;97349.53;1755952;80;21118;-86
2022/09/30 06:30:48;;;;;;;18.20;14.00;;;;;;;10.15;100.00;97343.78;1754536;81;21179;-83
2022/09/30 06:33:14;;;;;;;20.10;14.55;;;;;;;10.20;100.00;97350.48;1755617;80;21015;-83
2022/09/30 06:35:41;;;;;;;21.68;14.18;;;;;;;10.18;100.00;97349.98;1763730;80;21019;-84
2022/09/30 06:38:09;;;;;;;20.43;14.85;;;;;;;10.14;100.00;97345.69;1756423;81;21126;-86
2022/09/30 06:40:35;;;;;;;21.73;14.30;;;;;;;10.16;100.00;97349.45;1756949;80;21457;-84
2022/09/30 06:43:01;;;;;;;18.90;12.82;;;;;;;10.20;100.00;97345.08;1756269;81;21063;-87
2022/09/30 06:45:28;;;;;;;20.65;12.43;;;;;;;10.23;100.00;97344.50;1757146;81;21463;-84
2022/09/30 06:47:59;;;;;;;20.23;12.78;;;;;;;10.25;100.00;97340.95;1726595;81;21014;-84
2022/09/30 06:50:25;;;;;;;17.90;12.75;;;;;;;10.26;100.00;97336.36;1727810;81;21028;-84
2022/09/30 06:52:51;;;;;;;19.67;13.32;;;;;;;10.27;100.00;97338.77;1721134;81;21067;-83
2022/09/30 06:55:17;;;;;;;21.70;14.40;;;;;;;10.31;100.00;97333.56;1719394;81;21899;-83
2022/09/30 06:57:45;;;;;;;21.73;14.70;;;;;;;10.35;100.00;97342.72;1722725;82;20980;-85
2022/09/30 07:00:12;;;;;;;31.15;19.92;;;;;;;10.41;100.00;97342.33;1722453;81;21035;-87
2022/09/30 07:02:38;;;;;;;20.90;13.98;;;;;;;10.48;100.00;97341.96;1764869;80;21135;-86
2022/09/30 07:05:05;;;;;;;26.42;19.70;;;;;;;10.52;100.00;97347.61;1773169;80;20981;-84
2022/09/30 07:07:34;;;;;;;48.28;31.62;;;;;;;10.56;100.00;97347.26;1778298;80;21022;-84
2022/09/30 07:09:59;;;;;;;41.25;27.37;;;;;;;10.65;100.00;97346.84;1760913;80;21059;-84
2022/09/30 07:12:25;;;;;;;23.32;16.15;;;;;;;10.73;100.00;97346.16;1755475;80;21181;-83
2022/09/30 07:14:52;;;;;;;18.42;12.65;;;;;;;10.74;100.00;97349.13;1763699;79;21544;-86
2022/09/30 07:17:18;;;;;;;17.02;11.88;;;;;;;10.78;100.00;97353.41;1761327;80;21076;-87
2022/09/30 07:19:44;;;;;;;17.35;12.80;;;;;;;10.74;100.00;97351.83;1755263;80;21137;-86
2022/09/30 07:22:30;;;;;;;18.85;13.03;;;;;;;10.74;100.00;97349.13;1758142;80;20864;-87
2022/09/30 07:24:37;;;;;;;23.40;15.03;;;;;;;10.82;100.00;97348.44;1736575;80;21100;-87
2022/09/30 07:27:03;;;;;;;23.45;13.22;;;;;;;10.88;100.00;97361.37;1718440;82;20957;-84
2022/09/30 07:29:30;;;;;;;19.35;12.60;;;;;;;10.92;100.00;97359.10;1739022;81;20948;-87
2022/09/30 07:31:56;;;;;;;17.70;12.20;;;;;;;10.93;100.00;97359.91;1730276;82;21341;-86
2022/09/30 07:34:22;;;;;;;18.45;12.03;;;;;;;10.97;100.00;97354.96;1726929;81;20975;-86
2022/09/30 07:36:48;;;;;;;15.98;10.90;;;;;;;11.05;100.00;97362.97;1730366;81;21111;-87
2022/09/30 07:39:14;;;;;;;16.90;12.05;;;;;;;11.15;100.00;97360.62;1726563;81;21072;-87
2022/09/30 07:41:40;;;;;;;16.05;12.10;;;;;;;11.23;100.00;97363.99;1720317;81;20872;-84
2022/09/30 07:44:11;;;;;;;17.48;12.23;;;;;;;11.23;100.00;97364.80;1737809;81;21460;-87
2022/09/30 07:46:39;;;;;;;17.52;12.18;;;;;;;11.25;100.00;97370.72;1725392;81;20980;-87
2022/09/30 07:49:07;;;;;;;19.92;13.48;;;;;;;11.28;100.00;97369.34;1727219;81;21185;-87
2022/09/30 07:51:36;;;;;;;20.05;13.15;;;;;;;11.31;100.00;97366.02;1731606;81;21127;-84
2022/09/30 07:54:14;;;;;;;23.65;16.97;;;;;;;11.30;100.00;97364.41;1727105;81;20957;-84
2022/09/30 07:56:42;;;;;;;21.53;14.50;;;;;;;11.24;100.00;97365.05;1723677;82;21789;-85
2022/09/30 07:59:09;;;;;;;18.00;12.73;;;;;;;11.24;100.00;97365.59;1706917;82;21899;-84
2022/09/30 08:01:35;;;;;;;15.08;11.73;;;;;;;11.25;100.00;97372.63;1709242;82;21045;-83
2022/09/30 08:04:03;;;;;;;21.85;13.88;;;;;;;11.22;100.00;97376.75;1753672;80;20936;-84
2022/09/30 08:06:30;;;;;;;;;;;;;;;11.28;100.00;97379.63;1743278;80;21113;-84
2022/09/30 08:08:56;;;;;;;16.00;11.63;;;;;;;11.35;100.00;97378.41;1728670;81;21028;-87
2022/09/30 08:11:22;;;;;;;16.70;11.28;;;;;;;11.36;100.00;97375.39;1735012;81;21662;-86
2022/09/30 08:13:52;;;;;;;14.35;10.20;;;;;;;11.42;100.00;97378.83;1753035;80;20967;-87
2022/09/30 08:16:19;;;;;;;16.90;11.08;;;;;;;11.44;100.00;97381.48;1737667;81;21470;-84
2022/09/30 08:18:45;;;;;;;16.02;11.08;;;;;;;11.43;100.00;97383.95;1739997;79;21662;-84
2022/09/30 08:21:10;;;;;;;16.37;11.40;;;;;;;11.48;100.00;97378.98;1734820;81;21022;-87
2022/09/30 08:23:36;;;;;;;14.45;11.05;;;;;;;11.51;100.00;97385.96;1740947;80;21002;-85
2022/09/30 08:26:09;;;;;;;14.70;11.73;;;;;;;11.54;100.00;97386.73;1745515;80;20931;-86
2022/09/30 08:28:35;;;;;;;15.55;11.48;;;;;;;11.52;100.00;97383.50;1738616;80;21172;-88
2022/09/30 08:31:11;;;;;;;17.00;11.90;;;;;;;11.47;100.00;97384.97;1732217;81;21176;-87
2022/09/30 08:33:37;;;;;;;18.17;12.00;;;;;;;11.46;100.00;97386.63;1730927;81;21759;-85
2022/09/30 08:36:05;;;;;;;16.45;10.68;;;;;;;11.47;100.00;97395.82;1738507;80;21322;-87
2022/09/30 08:38:31;;;;;;;15.63;11.63;;;;;;;11.46;100.00;97396.92;1738822;81;20980;-84
2022/09/30 08:41:38;;;;;;;19.70;14.70;;;;;;;11.45;100.00;97395.33;1732623;80;20948;-84
2022/09/30 08:44:24;;;;;;;18.60;12.30;;;;;;;11.48;100.00;97395.27;1730994;81;21008;-84
2022/09/30 08:47:29;;;;;;;18.05;12.70;;;;;;;11.46;100.00;97395.58;1732159;81;21118;-87
2022/09/30 08:50:26;;;;;;;23.00;12.68;;;;;;;11.47;100.00;97392.30;1726934;81;21570;-84
2022/09/30 08:52:56;;;;;;;21.17;12.75;;;;;;;11.51;100.00;97398.73;1745444;80;21025;-84
2022/09/30 08:55:39;;;;;;;20.08;14.18;;;;;;;11.53;100.00;97401.94;1760077;81;21059;-87
2022/09/30 08:58:04;;;;;;;20.43;13.53;;;;;;;11.55;100.00;97398.39;1730420;81;21130;-87
2022/09/30 09:00:30;;;;;;;30.02;18.35;;;;;;;11.55;100.00;97398.39;1738266;80;21057;-87
2022/09/30 09:02:58;;;;;;;18.75;14.00;;;;;;;11.58;100.00;97397.23;1737201;81;20943;-87
2022/09/30 09:05:59;;;;;;;17.73;12.63;;;;;;;11.58;100.00;97395.06;1737557;82;21047;-84
2022/09/30 09:08:54;;;;;;;20.55;13.00;;;;;;;11.55;100.00;97398.39;1741054;81;22185;-87
2022/09/30 09:11:40;;;;;;;19.55;12.85;;;;;;;11.59;100.00;97404.81;1702057;83;21082;-84
2022/09/30 09:14:31;;;;;;;32.80;17.27;;;;;;;11.62;100.00;97406.11;1698884;82;21158;-84
2022/09/30 09:17:06;;;;;;;29.75;15.63;;;;;;;11.66;100.00;97412.56;1727376;81;21420;-84
2022/09/30 09:19:40;;;;;;;35.80;18.20;;;;;;;11.73;100.00;97419.75;1735940;81;21092;-84
2022/09/30 09:22:06;;;;;;;44.77;23.05;;;;;;;11.75;100.00;97418.89;1740672;80;20984;-84
2022/09/30 09:24:45;;;;;;;29.00;16.35;;;;;;;11.80;100.00;97422.35;1743540;81;20857;-84
2022/09/30 09:27:38;;;;;;;;;;;;;;;11.84;100.00;97428.77;1740205;81;21487;-87
2022/09/30 09:30:08;;;;;;;46.15;21.80;;;;;;;11.88;100.00;97424.09;1754759;80;20495;-87
2022/09/30 09:32:35;;;;;;;36.88;19.02;;;;;;;11.93;100.00;97428.06;1747949;81;21487;-83
2022/09/30 09:35:36;;;;;;;56.45;24.25;;;;;;;11.95;100.00;97430.72;1744543;81;21048;-84
2022/09/30 09:38:26;;;;;;;40.58;19.80;;;;;;;12.00;100.00;97427.91;1730973;80;20995;-84
2022/09/30 09:41:09;;;;;;;39.48;19.70;;;;;;;12.03;100.00;97431.92;1731890;80;21150;-81
2022/09/30 09:43:47;;;;;;;27.95;15.70;;;;;;;12.08;100.00;97429.12;1731549;80;21502;-82
2022/09/30 09:46:21;;;;;;;21.77;13.60;;;;;;;12.16;100.00;97438.47;1739117;81;20997;-77
2022/09/30 09:48:48;;;;;;;30.12;15.55;;;;;;;12.23;100.00;97433.44;1729719;81;20995;-81
2022/09/30 09:51:28;;;;;;;17.35;12.82;;;;;;;12.31;100.00;97437.59;1715603;82;21061;-80
2022/09/30 09:53:56;;;;;;;15.75;10.85;;;;;;;12.31;100.00;97435.44;1733539;81;21106;-88
2022/09/30 09:56:22;;;;;;;20.50;11.75;;;;;;;12.31;100.00;97436.23;1707755;82;21515;-88
2022/09/30 09:59:15;;;;;;;19.00;10.10;;;;;;;12.35;100.00;97433.14;1733074;81;21127;-83
2022/09/30 10:01:44;;;;;;;14.83;9.93;;;;;;;12.39;100.00;97440.12;1727774;82;21015;-83
2022/09/30 10:04:22;;;;;;;;;;;;;;;12.39;100.00;97439.59;1735538;81;22033;-84
2022/09/30 10:07:00;;;;;;;20.48;11.35;;;;;;;12.44;100.00;97445.45;1729976;82;20952;-84
2022/09/30 10:09:32;;;;;;;23.60;12.65;;;;;;;12.46;100.00;97439.70;1735147;81;20993;-83
2022/09/30 10:12:10;;;;;;;17.48;10.85;;;;;;;12.49;100.00;97445.36;1735083;80;21560;-88
2022/09/30 10:14:59;;;;;;;13.38;9.73;;;;;;;12.51;100.00;97445.05;1734503;81;20996;-84
2022/09/30 10:17:35;;;;;;;12.68;8.35;;;;;;;12.51;100.00;97452.64;1734834;81;21007;-88
2022/09/30 10:20:29;;;;;;;12.33;8.25;;;;;;;12.53;100.00;97450.41;1733654;81;21076;-88
2022/09/30 10:23:18;;;;;;;12.25;8.93;;;;;;;12.55;100.00;97449.55;1736111;80;21066;-87
2022/09/30 10:26:16;;;;;;;16.80;10.13;;;;;;;12.53;100.00;97449.05;1735556;81;21056;-88
2022/09/30 10:28:51;;;;;;;14.73;8.85;;;;;;;12.54;100.00;97450.66;1734529;81;21081;-86
2022/09/30 10:31:28;;;;;;;12.98;9.53;;;;;;;12.53;100.00;97459.92;1734840;81;21070;-87
2022/09/30 10:34:03;;;;;;;16.95;10.82;;;;;;;12.48;100.00;97460.05;1714324;81;21591;-87
2022/09/30 10:36:32;;;;;;;24.27;13.08;;;;;;;12.44;100.00;97471.27;1746270;81;22048;-83
2022/09/30 10:39:27;;;;;;;60.12;22.87;;;;;;;12.38;100.00;97461.05;1705985;80;21181;-84
2022/09/30 10:42:16;;;;;;;18.70;11.12;;;;;;;12.40;100.00;97466.20;1733080;80;21890;-87
2022/09/30 10:44:43;;;;;;;;;;;;;;;12.33;100.00;97474.77;1736006;80;21026;-87
2022/09/30 10:47:09;;;;;;;15.08;9.73;;;;;;;12.25;100.00;97470.59;1736051;80;21074;-84
2022/09/30 10:49:42;;;;;;;15.03;10.93;;;;;;;12.18;100.00;97477.79;1737234;80;21612;-84
2022/09/30 10:52:19;;;;;;;14.25;9.73;;;;;;;12.17;100.00;97476.19;1733231;80;21507;-84
2022/09/30 10:54:49;;;;;;;14.20;9.48;;;;;;;12.19;100.00;97476.67;1729009;81;21046;-84
2022/09/30 10:57:22;;;;;;;11.80;8.70;;;;;;;12.15;100.00;97477.05;1736409;81;21083;-84
2022/09/30 10:59:48;;;;;;;13.72;8.00;;;;;;;12.13;100.00;97477.36;1738496;80;21166;-87
2022/09/30 11:02:44;;;;;;;15.85;10.85;;;;;;;12.12;100.00;97478.99;1700191;81;21099;-84
2022/09/30 11:05:23;;;;;;;18.25;10.98;;;;;;;12.13;100.00;97481.95;1730747;81;21070;-84
2022/09/30 11:07:53;;;;;;;12.53;10.05;;;;;;;12.11;100.00;97476.83;1735560;81;21036;-84
2022/09/30 11:10:39;;;;;;;13.95;9.95;;;;;;;12.11;100.00;97484.17;1736940;82;21037;-84
2022/09/30 11:13:59;;;;;;;10.08;7.58;;;;;;;12.14;100.00;97483.03;1732775;80;21236;-87
2022/09/30 11:16:36;;;;;;;11.53;8.38;;;;;;;12.23;100.00;97481.77;1738155;80;21082;-87
2022/09/30 11:19:17;;;;;;;12.53;8.60;;;;;;;12.34;100.00;97491.31;1736839;80;21079;-84
2022/09/30 11:21:54;;;;;;;13.25;9.65;;;;;;;12.42;100.00;97485.72;1734172;80;21047;-84
2022/09/30 11:24:39;;;;;;;12.10;9.28;;;;;;;12.41;100.00;97489.55;1730249;81;21827;-83
2022/09/30 11:27:16;;;;;;;11.03;6.72;;;;;;;12.37;100.00;97492.05;1730158;80;22087;-83
2022/09/30 11:29:59;;;;;;;10.48;7.90;;;;;;;12.33;100.00;97492.42;1730431;80;21204;-83
2022/09/30 11:32:40;;;;;;;17.90;8.65;;;;;;;12.32;100.00;97498.16;1732377;79;21030;-87
2022/09/30 11:35:46;;;;;;;12.55;8.50;;;;;;;12.32;100.00;97494.89;1743677;80;21102;-84
2022/09/30 11:38:55;;;;;;;22.87;11.28;;;;;;;12.37;100.00;97502.12;1744078;80;21106;-87
2022/09/30 11:41:31;;;;;;;17.25;9.08;;;;;;;12.44;100.00;97503.88;1737280;81;21453;-87
2022/09/30 11:44:15;;;;;;;9.28;6.70;;;;;;;12.53;100.00;97503.41;1723627;81;21063;-86